VIR29 KIAD-EGLL
Flight info
| Callsign | VIR29 |
|---|---|
| Flight time | N/A |
| Altitude | 37000 |
| Route | JCOBY4 SWANN DCT BROSS Q419 RBV Q22 FOXWD DCT MIILS N691A NEEKO/M083F380 NATV NETKI/N0473F390 DCT BOFUM Q37 MALUD Q38 NUGRA |
| Aircraft | A346/H-SDE2E3FGHIJ3J4J5M1RWXY/LB1D1 |
Departure
| Time | 2026-05-06 23:37 |
|---|---|
| Airport | Washington Dulles International Airport (KIAD) |
Arrival
| Time | N/A |
|---|---|
| Airport | London Heathrow Airport (EGLL) |
| Time | Latitude | Longitude | Altitude | Speed | Heading |
|---|---|---|---|---|---|
| 2026-05-06 23:05 | 38.94595 | -77.45029 | 309 ft | 0 kts | 177° |
| 2026-05-06 23:24 | 38.94596 | -77.45029 | 309 ft | 0 kts | 177° |
| 2026-05-06 23:26 | 38.94597 | -77.45029 | 309 ft | 0 kts | 177° |
| 2026-05-06 23:28 | 38.94605 | -77.45030 | 309 ft | 0 kts | 177° |
| 2026-05-06 23:28 | 38.94631 | -77.45032 | 311 ft | 0 kts | 177° |
| 2026-05-06 23:29 | 38.94657 | -77.45034 | 311 ft | 0 kts | 177° |
| 2026-05-06 23:29 | 38.94679 | -77.45035 | 309 ft | 0 kts | 177° |
| 2026-05-06 23:29 | 38.94680 | -77.45035 | 309 ft | 0 kts | 177° |
| 2026-05-06 23:29 | 38.94678 | -77.45035 | 309 ft | 0 kts | 177° |
| 2026-05-06 23:30 | 38.94679 | -77.45035 | 309 ft | 1 kts | 180° |
| 2026-05-06 23:30 | 38.94681 | -77.45035 | 309 ft | 1 kts | 201° |
| 2026-05-06 23:30 | 38.94670 | -77.45043 | 309 ft | 3 kts | 208° |
| 2026-05-06 23:30 | 38.94661 | -77.45059 | 311 ft | 3 kts | 250° |
| 2026-05-06 23:31 | 38.94658 | -77.45098 | 309 ft | 6 kts | 271° |
| 2026-05-06 23:31 | 38.94660 | -77.45143 | 309 ft | 4 kts | 272° |
| 2026-05-06 23:31 | 38.94661 | -77.45192 | 309 ft | 6 kts | 272° |
| 2026-05-06 23:31 | 38.94662 | -77.45258 | 309 ft | 8 kts | 270° |
| 2026-05-06 23:32 | 38.94662 | -77.45333 | 309 ft | 8 kts | 270° |
| 2026-05-06 23:32 | 38.94663 | -77.45406 | 309 ft | 7 kts | 270° |
| 2026-05-06 23:32 | 38.94663 | -77.45475 | 309 ft | 9 kts | 270° |
| 2026-05-06 23:32 | 38.94664 | -77.45565 | 309 ft | 11 kts | 271° |
| 2026-05-06 23:33 | 38.94661 | -77.45669 | 309 ft | 12 kts | 254° |
| 2026-05-06 23:33 | 38.94590 | -77.45722 | 310 ft | 13 kts | 185° |
| 2026-05-06 23:33 | 38.94495 | -77.45725 | 309 ft | 14 kts | 180° |
| 2026-05-06 23:33 | 38.94393 | -77.45726 | 309 ft | 15 kts | 181° |
| 2026-05-06 23:34 | 38.94284 | -77.45728 | 310 ft | 16 kts | 181° |
| 2026-05-06 23:34 | 38.94171 | -77.45729 | 310 ft | 16 kts | 180° |
| 2026-05-06 23:34 | 38.94053 | -77.45731 | 310 ft | 18 kts | 181° |
| 2026-05-06 23:34 | 38.93925 | -77.45733 | 309 ft | 18 kts | 180° |
| 2026-05-06 23:35 | 38.93801 | -77.45728 | 310 ft | 17 kts | 160° |
| 2026-05-06 23:35 | 38.93713 | -77.45626 | 310 ft | 17 kts | 131° |
| 2026-05-06 23:35 | 38.93655 | -77.45540 | 311 ft | 11 kts | 132° |
| 2026-05-06 23:35 | 38.93580 | -77.45503 | 309 ft | 13 kts | 188° |
| 2026-05-06 23:36 | 38.93490 | -77.45542 | 310 ft | 14 kts | 200° |
| 2026-05-06 23:36 | 38.93397 | -77.45605 | 310 ft | 16 kts | 232° |
| 2026-05-06 23:36 | 38.93400 | -77.45727 | 309 ft | 14 kts | 290° |
| 2026-05-06 23:36 | 38.93450 | -77.45897 | 309 ft | 45 kts | 290° |
| 2026-05-06 23:37 | 38.93655 | -77.46596 | 312 ft | 119 kts | 290° |
| 2026-05-06 23:37 | 38.94025 | -77.47856 | 315 ft | 178 kts | 291° |
| 2026-05-06 23:37 | 38.94506 | -77.49440 | 770 ft | 193 kts | 292° |
| 2026-05-06 23:37 | 38.95279 | -77.50848 | 1554 ft | 194 kts | 317° |
| 2026-05-06 23:38 | 38.96289 | -77.52034 | 2382 ft | 203 kts | 312° |
| 2026-05-06 23:38 | 38.97307 | -77.53448 | 2851 ft | 231 kts | 309° |
| 2026-05-06 23:38 | 38.98456 | -77.55087 | 2994 ft | 253 kts | 309° |
| 2026-05-06 23:38 | 38.99637 | -77.56774 | 3004 ft | 254 kts | 311° |
| 2026-05-06 23:39 | 39.01083 | -77.58103 | 3014 ft | 266 kts | 339° |
| 2026-05-06 23:39 | 39.02958 | -77.58323 | 3547 ft | 279 kts | 8° |
| 2026-05-06 23:39 | 39.04720 | -77.57350 | 4600 ft | 275 kts | 32° |
| 2026-05-06 23:39 | 39.06217 | -77.55830 | 5517 ft | 276 kts | 41° |
| 2026-05-06 23:40 | 39.07384 | -77.53818 | 6149 ft | 287 kts | 60° |
| 2026-05-06 23:40 | 39.08237 | -77.51452 | 6807 ft | 294 kts | 66° |
| 2026-05-06 23:40 | 39.09049 | -77.49002 | 7478 ft | 299 kts | 65° |
| 2026-05-06 23:40 | 39.09900 | -77.46538 | 8179 ft | 303 kts | 64° |
| 2026-05-06 23:41 | 39.10804 | -77.44057 | 8844 ft | 308 kts | 63° |
| 2026-05-06 23:41 | 39.11764 | -77.41508 | 9563 ft | 312 kts | 62° |
| 2026-05-06 23:41 | 39.12737 | -77.38971 | 10193 ft | 319 kts | 62° |
| 2026-05-06 23:41 | 39.13741 | -77.36367 | 10680 ft | 329 kts | 62° |
| 2026-05-06 23:42 | 39.14769 | -77.33691 | 11271 ft | 334 kts | 62° |
| 2026-05-06 23:42 | 39.15623 | -77.30891 | 11898 ft | 338 kts | 81° |
| 2026-05-06 23:42 | 39.15633 | -77.27897 | 12588 ft | 333 kts | 104° |
| 2026-05-06 23:42 | 39.15128 | -77.24983 | 13236 ft | 334 kts | 109° |
| 2026-05-06 23:43 | 39.14530 | -77.22063 | 13767 ft | 340 kts | 108° |
| 2026-05-06 23:43 | 39.13947 | -77.19078 | 14266 ft | 346 kts | 107° |
| 2026-05-06 23:43 | 39.13402 | -77.16030 | 14770 ft | 351 kts | 105° |
| 2026-05-06 23:43 | 39.12904 | -77.12963 | 15286 ft | 356 kts | 104° |
| 2026-05-06 23:44 | 39.12405 | -77.09772 | 15803 ft | 361 kts | 104° |
| 2026-05-06 23:44 | 39.11900 | -77.06567 | 16302 ft | 365 kts | 104° |
| 2026-05-06 23:44 | 39.11383 | -77.03329 | 16844 ft | 369 kts | 104° |
| 2026-05-06 23:44 | 39.10900 | -77.00051 | 17350 ft | 375 kts | 99° |
| 2026-05-06 23:45 | 39.10678 | -76.96682 | 17827 ft | 381 kts | 91° |
| 2026-05-06 23:45 | 39.10714 | -76.93247 | 18331 ft | 385 kts | 88° |
| 2026-05-06 23:45 | 39.10829 | -76.89820 | 18786 ft | 389 kts | 87° |
| 2026-05-06 23:45 | 39.10957 | -76.86320 | 19221 ft | 394 kts | 87° |
| 2026-05-06 23:46 | 39.11075 | -76.82778 | 19690 ft | 397 kts | 88° |
| 2026-05-06 23:46 | 39.11177 | -76.79205 | 20163 ft | 400 kts | 88° |
| 2026-05-06 23:46 | 39.11271 | -76.75606 | 20595 ft | 404 kts | 88° |
| 2026-05-06 23:46 | 39.11360 | -76.71959 | 21027 ft | 409 kts | 88° |
| 2026-05-06 23:47 | 39.11449 | -76.68220 | 21421 ft | 414 kts | 88° |
| 2026-05-06 23:47 | 39.11535 | -76.64535 | 21846 ft | 418 kts | 88° |
| 2026-05-06 23:47 | 39.11624 | -76.60745 | 22269 ft | 423 kts | 89° |
| 2026-05-06 23:47 | 39.11711 | -76.56956 | 22684 ft | 427 kts | 89° |
| 2026-05-06 23:48 | 39.11816 | -76.53109 | 23098 ft | 432 kts | 86° |
| 2026-05-06 23:48 | 39.12108 | -76.49182 | 23481 ft | 436 kts | 81° |
| 2026-05-06 23:48 | 39.12528 | -76.45348 | 23844 ft | 439 kts | 79° |
| 2026-05-06 23:48 | 39.12996 | -76.41441 | 24250 ft | 442 kts | 79° |
| 2026-05-06 23:49 | 39.13468 | -76.37515 | 24654 ft | 444 kts | 79° |
| 2026-05-06 23:49 | 39.13930 | -76.33560 | 25033 ft | 447 kts | 79° |
| 2026-05-06 23:49 | 39.14383 | -76.29578 | 25406 ft | 450 kts | 80° |
| 2026-05-06 23:49 | 39.14832 | -76.25561 | 25771 ft | 453 kts | 80° |
| 2026-05-06 23:50 | 39.15281 | -76.21528 | 26130 ft | 456 kts | 79° |
| 2026-05-06 23:50 | 39.16216 | -76.13380 | 26809 ft | 462 kts | 79° |
| 2026-05-06 23:50 | 39.16691 | -76.09268 | 27222 ft | 463 kts | 79° |
| 2026-05-06 23:51 | 39.17163 | -76.05159 | 27634 ft | 464 kts | 79° |
| 2026-05-06 23:51 | 39.17636 | -76.01021 | 27994 ft | 467 kts | 79° |
| 2026-05-06 23:51 | 39.18109 | -75.96858 | 28388 ft | 470 kts | 79° |
| 2026-05-06 23:51 | 39.18593 | -75.92672 | 28695 ft | 474 kts | 76° |
| 2026-05-06 23:52 | 39.19556 | -75.88636 | 28885 ft | 469 kts | 56° |
| 2026-05-06 23:52 | 39.21350 | -75.85214 | 29120 ft | 451 kts | 34° |
| 2026-05-06 23:52 | 39.23647 | -75.82558 | 29503 ft | 440 kts | 27° |
| 2026-05-06 23:52 | 39.26045 | -75.80114 | 29904 ft | 439 kts | 26° |
| 2026-05-06 23:53 | 39.28451 | -75.77664 | 30191 ft | 442 kts | 27° |
| 2026-05-06 23:53 | 39.30851 | -75.75156 | 30485 ft | 445 kts | 28° |
| 2026-05-06 23:53 | 39.33237 | -75.72594 | 30784 ft | 448 kts | 28° |
| 2026-05-06 23:53 | 39.35627 | -75.69988 | 31067 ft | 451 kts | 28° |
| 2026-05-06 23:54 | 39.38022 | -75.67357 | 31403 ft | 453 kts | 28° |
| 2026-05-06 23:54 | 39.40434 | -75.64703 | 31670 ft | 456 kts | 28° |
| 2026-05-06 23:54 | 39.42856 | -75.62044 | 31940 ft | 458 kts | 28° |
| 2026-05-06 23:54 | 39.45256 | -75.59405 | 32216 ft | 460 kts | 28° |
| 2026-05-06 23:55 | 39.47723 | -75.56687 | 32495 ft | 462 kts | 27° |
| 2026-05-06 23:55 | 39.50191 | -75.53966 | 32770 ft | 464 kts | 27° |
| 2026-05-06 23:55 | 39.52618 | -75.51288 | 33026 ft | 466 kts | 27° |
| 2026-05-06 23:55 | 39.55096 | -75.48554 | 33295 ft | 468 kts | 27° |
| 2026-05-06 23:56 | 39.57586 | -75.45800 | 33595 ft | 471 kts | 27° |
| 2026-05-06 23:56 | 39.60086 | -75.43033 | 33825 ft | 474 kts | 27° |
| 2026-05-06 23:56 | 39.62599 | -75.40254 | 34026 ft | 475 kts | 27° |
| 2026-05-06 23:56 | 39.65117 | -75.37465 | 34272 ft | 477 kts | 27° |
| 2026-05-06 23:57 | 39.67641 | -75.34660 | 34510 ft | 478 kts | 27° |
| 2026-05-06 23:57 | 39.70176 | -75.31843 | 34730 ft | 480 kts | 27° |
| 2026-05-06 23:57 | 39.72718 | -75.29016 | 34939 ft | 481 kts | 27° |
| 2026-05-06 23:57 | 39.75259 | -75.26187 | 35145 ft | 483 kts | 27° |
| 2026-05-06 23:58 | 39.77806 | -75.23301 | 35343 ft | 489 kts | 30° |
| 2026-05-06 23:58 | 39.80264 | -75.20183 | 35544 ft | 498 kts | 34° |
| 2026-05-06 23:58 | 39.82611 | -75.16826 | 35743 ft | 503 kts | 37° |
| 2026-05-06 23:58 | 39.84916 | -75.13376 | 35929 ft | 506 kts | 37° |
| 2026-05-06 23:59 | 39.87224 | -75.09887 | 36083 ft | 508 kts | 37° |
| 2026-05-06 23:59 | 39.89541 | -75.06400 | 36238 ft | 510 kts | 37° |
| 2026-05-06 23:59 | 39.91874 | -75.02918 | 36408 ft | 510 kts | 37° |
| 2026-05-06 23:59 | 39.94210 | -74.99430 | 36683 ft | 510 kts | 37° |
| 2026-05-07 00:00 | 39.96511 | -74.95866 | 36796 ft | 518 kts | 40° |
| 2026-05-07 00:00 | 39.98681 | -74.92053 | 36845 ft | 528 kts | 45° |
| 2026-05-07 00:00 | 40.02118 | -74.85360 | 36849 ft | 540 kts | 47° |
| 2026-05-07 00:01 | 40.06988 | -74.75661 | 36850 ft | 552 kts | 47° |
| 2026-05-07 00:01 | 40.11267 | -74.67212 | 36882 ft | 562 kts | 47° |
| 2026-05-07 00:02 | 40.15644 | -74.58613 | 36842 ft | 571 kts | 46° |
| 2026-05-07 00:02 | 40.20472 | -74.50463 | 36839 ft | 569 kts | 38° |
| 2026-05-07 00:03 | 40.26045 | -74.43133 | 36848 ft | 559 kts | 29° |
| 2026-05-07 00:03 | 40.32006 | -74.36698 | 36886 ft | 553 kts | 26° |
| 2026-05-07 00:04 | 40.38013 | -74.30399 | 36837 ft | 552 kts | 27° |
| 2026-05-07 00:04 | 40.43976 | -74.24046 | 36834 ft | 552 kts | 27° |
| 2026-05-07 00:05 | 40.49930 | -74.17649 | 36868 ft | 552 kts | 27° |
| 2026-05-07 00:05 | 40.55891 | -74.11223 | 36843 ft | 552 kts | 27° |
| 2026-05-07 00:06 | 40.61821 | -74.04803 | 36861 ft | 552 kts | 28° |
| 2026-05-07 00:06 | 40.67756 | -73.98370 | 36865 ft | 552 kts | 28° |
| 2026-05-07 00:07 | 40.73710 | -73.91904 | 36839 ft | 552 kts | 28° |
| 2026-05-07 00:07 | 40.79685 | -73.85392 | 36824 ft | 553 kts | 28° |
| 2026-05-07 00:08 | 40.85363 | -73.78422 | 36875 ft | 565 kts | 36° |
| 2026-05-07 00:08 | 40.89669 | -73.71818 | 36833 ft | 576 kts | 43° |
| 2026-05-07 00:09 | 40.94370 | -73.63125 | 36799 ft | 581 kts | 47° |
| 2026-05-07 00:09 | 40.98955 | -73.54314 | 36825 ft | 580 kts | 47° |
| 2026-05-07 00:10 | 41.03552 | -73.45534 | 36838 ft | 581 kts | 47° |
| 2026-05-07 00:10 | 41.08195 | -73.36716 | 36838 ft | 581 kts | 47° |
| 2026-05-07 00:11 | 41.12821 | -73.27921 | 36819 ft | 580 kts | 47° |
| 2026-05-07 00:11 | 41.17433 | -73.19124 | 36896 ft | 580 kts | 47° |
| 2026-05-07 00:12 | 41.22045 | -73.10297 | 36846 ft | 581 kts | 47° |
| 2026-05-07 00:12 | 41.26650 | -73.01460 | 36847 ft | 581 kts | 47° |
| 2026-05-07 00:13 | 41.31078 | -72.92412 | 36811 ft | 584 kts | 52° |
| 2026-05-07 00:13 | 41.35216 | -72.83174 | 36860 ft | 585 kts | 53° |
| 2026-05-07 00:14 | 41.39364 | -72.73823 | 36844 ft | 586 kts | 53° |
| 2026-05-07 00:14 | 41.43526 | -72.64469 | 36844 ft | 586 kts | 53° |
| 2026-05-07 00:15 | 41.47696 | -72.55099 | 36827 ft | 584 kts | 53° |
| 2026-05-07 00:15 | 41.51842 | -72.45756 | 36817 ft | 584 kts | 53° |
| 2026-05-07 00:16 | 41.55971 | -72.36422 | 36828 ft | 584 kts | 53° |
| 2026-05-07 00:16 | 41.60101 | -72.27058 | 36828 ft | 584 kts | 53° |
| 2026-05-07 00:17 | 41.64214 | -72.17708 | 36840 ft | 582 kts | 53° |
| 2026-05-07 00:17 | 41.68316 | -72.08349 | 36827 ft | 582 kts | 53° |
| 2026-05-07 00:18 | 41.72410 | -71.98981 | 36828 ft | 583 kts | 53° |
| 2026-05-07 00:18 | 41.76578 | -71.89672 | 36803 ft | 579 kts | 49° |
| 2026-05-07 00:19 | 41.81528 | -71.81319 | 36837 ft | 566 kts | 38° |
| 2026-05-07 00:19 | 41.87329 | -71.74403 | 36834 ft | 550 kts | 27° |
| 2026-05-07 00:20 | 41.93650 | -71.68809 | 36837 ft | 541 kts | 21° |
| 2026-05-07 00:20 | 42.00061 | -71.63490 | 36845 ft | 543 kts | 22° |
| 2026-05-07 00:21 | 42.06482 | -71.58085 | 36830 ft | 544 kts | 22° |
| 2026-05-07 00:21 | 42.12887 | -71.52630 | 36845 ft | 544 kts | 22° |
| 2026-05-07 00:22 | 42.18981 | -71.47416 | 36811 ft | 545 kts | 23° |
| 2026-05-07 00:22 | 42.25552 | -71.41770 | 36798 ft | 545 kts | 23° |
| 2026-05-07 00:23 | 42.31969 | -71.36248 | 36826 ft | 546 kts | 23° |
| 2026-05-07 00:23 | 42.38378 | -71.30720 | 36790 ft | 547 kts | 23° |
| 2026-05-07 00:24 | 42.44793 | -71.25166 | 36783 ft | 547 kts | 24° |
| 2026-05-07 00:24 | 42.51170 | -71.19639 | 36807 ft | 548 kts | 24° |
| 2026-05-07 00:25 | 42.57590 | -71.14056 | 36794 ft | 548 kts | 24° |
| 2026-05-07 00:25 | 42.64014 | -71.08454 | 36834 ft | 548 kts | 24° |
| 2026-05-07 00:26 | 42.70448 | -71.02838 | 36799 ft | 549 kts | 24° |
| 2026-05-07 00:26 | 42.76871 | -70.97209 | 36793 ft | 550 kts | 24° |
| 2026-05-07 00:27 | 42.83303 | -70.91562 | 36819 ft | 550 kts | 25° |
| 2026-05-07 00:27 | 42.89736 | -70.85903 | 36741 ft | 550 kts | 25° |
| 2026-05-07 00:28 | 42.96163 | -70.80227 | 36753 ft | 550 kts | 25° |
| 2026-05-07 00:28 | 43.02593 | -70.74541 | 36770 ft | 550 kts | 25° |
| 2026-05-07 00:29 | 43.09015 | -70.68842 | 36752 ft | 550 kts | 25° |
| 2026-05-07 00:30 | 43.21863 | -70.57398 | 36769 ft | 550 kts | 26° |
| 2026-05-07 00:30 | 43.28239 | -70.51700 | 36748 ft | 550 kts | 26° |
| 2026-05-07 00:31 | 43.34651 | -70.45959 | 36775 ft | 550 kts | 26° |
| 2026-05-07 00:31 | 43.41061 | -70.40198 | 36771 ft | 550 kts | 26° |
| 2026-05-07 00:32 | 43.47466 | -70.34427 | 36807 ft | 550 kts | 26° |
| 2026-05-07 00:32 | 43.53875 | -70.28647 | 36787 ft | 550 kts | 27° |
| 2026-05-07 00:33 | 43.60268 | -70.22855 | 36766 ft | 549 kts | 27° |
| 2026-05-07 00:33 | 43.66659 | -70.17056 | 36774 ft | 549 kts | 27° |
| 2026-05-07 00:34 | 43.73035 | -70.11254 | 36775 ft | 548 kts | 27° |
| 2026-05-07 00:34 | 43.79403 | -70.05439 | 36797 ft | 548 kts | 27° |
| 2026-05-07 00:35 | 43.85725 | -69.99661 | 36804 ft | 548 kts | 28° |
| 2026-05-07 00:35 | 43.92080 | -69.93829 | 36800 ft | 548 kts | 28° |
| 2026-05-07 00:36 | 43.98439 | -69.87982 | 36826 ft | 548 kts | 28° |
| 2026-05-07 00:36 | 44.04784 | -69.82138 | 36798 ft | 547 kts | 28° |
| 2026-05-07 00:37 | 44.11124 | -69.76273 | 36796 ft | 547 kts | 28° |
| 2026-05-07 00:38 | 44.24031 | -69.64297 | 36793 ft | 546 kts | 29° |
| 2026-05-07 00:38 | 44.30356 | -69.58400 | 36768 ft | 546 kts | 29° |
| 2026-05-07 00:39 | 44.36691 | -69.52489 | 36783 ft | 545 kts | 29° |
| 2026-05-07 00:39 | 44.42988 | -69.46587 | 36780 ft | 545 kts | 30° |
| 2026-05-07 00:40 | 44.49291 | -69.40666 | 36805 ft | 545 kts | 30° |
| 2026-05-07 00:40 | 44.55586 | -69.34743 | 36827 ft | 545 kts | 30° |
| 2026-05-07 00:41 | 44.61875 | -69.28801 | 36829 ft | 545 kts | 30° |
| 2026-05-07 00:41 | 44.68158 | -69.22856 | 36848 ft | 545 kts | 30° |
| 2026-05-07 00:42 | 44.74444 | -69.16889 | 36849 ft | 545 kts | 30° |
| 2026-05-07 00:42 | 44.80727 | -69.10907 | 36851 ft | 545 kts | 30° |
| 2026-05-07 00:43 | 44.87011 | -69.04910 | 36855 ft | 545 kts | 31° |
| 2026-05-07 00:43 | 44.93285 | -68.98906 | 36855 ft | 545 kts | 31° |
| 2026-05-07 00:44 | 44.99561 | -68.92885 | 36872 ft | 545 kts | 31° |
| 2026-05-07 00:44 | 45.05829 | -68.86860 | 36862 ft | 545 kts | 31° |
| 2026-05-07 00:45 | 45.12099 | -68.80810 | 36860 ft | 545 kts | 31° |
| 2026-05-07 00:45 | 45.18337 | -68.74777 | 36859 ft | 547 kts | 31° |
| 2026-05-07 00:46 | 45.24625 | -68.68684 | 36853 ft | 547 kts | 31° |
| 2026-05-07 00:46 | 45.30908 | -68.62571 | 36851 ft | 547 kts | 31° |
| 2026-05-07 00:47 | 45.37193 | -68.56445 | 36878 ft | 548 kts | 32° |
| 2026-05-07 00:47 | 45.43487 | -68.50292 | 36877 ft | 549 kts | 32° |
| 2026-05-07 00:48 | 45.49783 | -68.44115 | 36875 ft | 549 kts | 32° |
| 2026-05-07 00:48 | 45.56071 | -68.37935 | 36891 ft | 549 kts | 32° |
| 2026-05-07 00:49 | 45.62362 | -68.31730 | 36891 ft | 549 kts | 32° |
| 2026-05-07 00:49 | 45.68655 | -68.25507 | 36891 ft | 549 kts | 32° |
| 2026-05-07 00:50 | 45.74949 | -68.19272 | 36916 ft | 551 kts | 33° |
| 2026-05-07 00:50 | 45.81212 | -68.13042 | 36916 ft | 551 kts | 33° |
| 2026-05-07 00:51 | 45.87510 | -68.06760 | 36934 ft | 551 kts | 33° |
| 2026-05-07 00:51 | 45.93824 | -68.00449 | 36931 ft | 553 kts | 33° |
| 2026-05-07 00:52 | 46.00121 | -67.94134 | 36925 ft | 553 kts | 33° |
| 2026-05-07 00:52 | 46.06428 | -67.87792 | 36923 ft | 553 kts | 33° |
| 2026-05-07 00:53 | 46.12746 | -67.81423 | 36922 ft | 554 kts | 33° |
| 2026-05-07 00:53 | 46.19058 | -67.75039 | 36922 ft | 554 kts | 33° |
| 2026-05-07 00:54 | 46.24300 | -67.69725 | 36947 ft | 554 kts | 33° |
| 2026-05-07 00:54 | 46.30614 | -67.63308 | 36958 ft | 555 kts | 33° |
| 2026-05-07 00:55 | 46.36940 | -67.56858 | 36969 ft | 555 kts | 33° |
| 2026-05-07 00:55 | 46.44325 | -67.49307 | 37001 ft | 556 kts | 34° |
| 2026-05-07 00:56 | 46.48119 | -67.45417 | 37003 ft | 557 kts | 34° |
| 2026-05-07 00:56 | 46.54460 | -67.38900 | 37195 ft | 559 kts | 34° |
| 2026-05-07 00:57 | 46.57633 | -67.35632 | 37333 ft | 558 kts | 34° |
| 2026-05-07 00:57 | 46.60799 | -67.32366 | 37516 ft | 558 kts | 34° |
| 2026-05-07 00:57 | 46.63963 | -67.29099 | 37665 ft | 557 kts | 33° |
| 2026-05-07 00:57 | 46.67125 | -67.25830 | 37792 ft | 557 kts | 33° |
| 2026-05-07 00:58 | 46.73434 | -67.19296 | 37796 ft | 555 kts | 34° |
| 2026-05-07 00:58 | 46.79729 | -67.12757 | 37797 ft | 556 kts | 34° |
| 2026-05-07 00:59 | 46.88759 | -67.02099 | 37796 ft | 557 kts | 44° |
| 2026-05-07 01:00 | 46.94050 | -66.93837 | 37813 ft | 557 kts | 49° |
| 2026-05-07 01:00 | 46.99150 | -66.85251 | 37754 ft | 559 kts | 49° |
| 2026-05-07 01:01 | 47.04221 | -66.76702 | 37793 ft | 559 kts | 49° |
| 2026-05-07 01:01 | 47.09339 | -66.68093 | 37795 ft | 559 kts | 49° |
| 2026-05-07 01:02 | 47.14457 | -66.59483 | 37808 ft | 560 kts | 49° |
| 2026-05-07 01:02 | 47.19576 | -66.50848 | 37799 ft | 560 kts | 50° |
| 2026-05-07 01:03 | 47.24689 | -66.42192 | 37789 ft | 560 kts | 50° |
| 2026-05-07 01:03 | 47.29796 | -66.33524 | 37797 ft | 560 kts | 50° |
| 2026-05-07 01:04 | 47.34897 | -66.24836 | 37804 ft | 560 kts | 50° |
| 2026-05-07 01:04 | 47.39996 | -66.16122 | 37802 ft | 560 kts | 50° |
| 2026-05-07 01:05 | 47.45087 | -66.07399 | 37807 ft | 561 kts | 50° |
| 2026-05-07 01:05 | 47.50179 | -65.98643 | 37800 ft | 561 kts | 50° |
| 2026-05-07 01:06 | 47.55258 | -65.89880 | 37765 ft | 561 kts | 50° |
| 2026-05-07 01:06 | 47.60346 | -65.81074 | 37798 ft | 562 kts | 50° |
| 2026-05-07 01:07 | 47.65428 | -65.72249 | 37801 ft | 563 kts | 51° |
| 2026-05-07 01:07 | 47.70509 | -65.63394 | 37800 ft | 563 kts | 51° |
| 2026-05-07 01:08 | 47.75579 | -65.54530 | 37805 ft | 563 kts | 51° |
| 2026-05-07 01:08 | 47.80651 | -65.45633 | 37802 ft | 563 kts | 51° |
| 2026-05-07 01:09 | 47.85678 | -65.36786 | 37801 ft | 563 kts | 51° |
| 2026-05-07 01:09 | 47.90730 | -65.27867 | 37795 ft | 563 kts | 51° |
| 2026-05-07 01:10 | 47.95786 | -65.18914 | 37799 ft | 563 kts | 51° |
| 2026-05-07 01:10 | 48.00835 | -65.09938 | 37797 ft | 563 kts | 51° |
| 2026-05-07 01:11 | 48.05872 | -65.00956 | 37803 ft | 563 kts | 51° |
| 2026-05-07 01:11 | 48.10903 | -64.91957 | 37784 ft | 564 kts | 52° |
| 2026-05-07 01:12 | 48.15943 | -64.82911 | 37803 ft | 565 kts | 52° |
| 2026-05-07 01:12 | 48.20979 | -64.73836 | 37810 ft | 566 kts | 52° |
| 2026-05-07 01:13 | 48.26008 | -64.64742 | 37818 ft | 566 kts | 52° |
| 2026-05-07 01:13 | 48.31032 | -64.55627 | 37820 ft | 566 kts | 52° |
| 2026-05-07 01:14 | 48.36046 | -64.46501 | 37819 ft | 566 kts | 52° |
| 2026-05-07 01:14 | 48.41051 | -64.37362 | 37822 ft | 566 kts | 52° |
| 2026-05-07 01:15 | 48.46062 | -64.28180 | 37821 ft | 567 kts | 52° |
| 2026-05-07 01:15 | 48.51063 | -64.18986 | 37822 ft | 567 kts | 52° |
| 2026-05-07 01:16 | 48.56056 | -64.09775 | 37825 ft | 567 kts | 52° |
| 2026-05-07 01:16 | 48.61047 | -64.00532 | 37827 ft | 568 kts | 52° |
| 2026-05-07 01:17 | 48.66030 | -63.91277 | 37794 ft | 568 kts | 52° |
| 2026-05-07 01:17 | 48.71017 | -63.81983 | 37821 ft | 568 kts | 52° |
| 2026-05-07 01:18 | 48.75963 | -63.72729 | 37831 ft | 569 kts | 52° |
| 2026-05-07 01:18 | 48.80943 | -63.63376 | 37826 ft | 569 kts | 52° |
| 2026-05-07 01:19 | 48.85920 | -63.54003 | 37826 ft | 569 kts | 53° |
| 2026-05-07 01:19 | 48.90885 | -63.44618 | 37835 ft | 569 kts | 53° |
| 2026-05-07 01:20 | 48.95848 | -63.35197 | 37845 ft | 570 kts | 53° |
| 2026-05-07 01:20 | 49.00800 | -63.25771 | 37841 ft | 570 kts | 53° |
| 2026-05-07 01:21 | 49.05755 | -63.16306 | 37840 ft | 570 kts | 53° |
| 2026-05-07 01:21 | 49.10694 | -63.06833 | 37852 ft | 571 kts | 53° |
| 2026-05-07 01:22 | 49.15639 | -62.97319 | 37852 ft | 571 kts | 53° |
| 2026-05-07 01:22 | 49.20573 | -62.87793 | 37814 ft | 571 kts | 53° |
| 2026-05-07 01:23 | 49.25500 | -62.78240 | 37849 ft | 571 kts | 53° |
| 2026-05-07 01:23 | 49.30422 | -62.68665 | 37863 ft | 571 kts | 53° |
| 2026-05-07 01:24 | 49.35338 | -62.59072 | 37856 ft | 571 kts | 53° |
| 2026-05-07 01:24 | 49.40240 | -62.49471 | 37859 ft | 571 kts | 53° |
| 2026-05-07 01:25 | 49.45144 | -62.39820 | 37867 ft | 573 kts | 53° |
| 2026-05-07 01:25 | 49.50047 | -62.30147 | 37851 ft | 573 kts | 53° |
| 2026-05-07 01:26 | 49.54909 | -62.20521 | 37860 ft | 573 kts | 53° |
| 2026-05-07 01:26 | 49.59787 | -62.10818 | 37864 ft | 573 kts | 53° |
| 2026-05-07 01:27 | 49.64669 | -62.01079 | 37861 ft | 573 kts | 53° |
| 2026-05-07 01:27 | 49.69549 | -61.91310 | 37860 ft | 573 kts | 53° |
| 2026-05-07 01:28 | 49.74416 | -61.81528 | 37882 ft | 573 kts | 53° |
| 2026-05-07 01:28 | 49.79265 | -61.71730 | 37858 ft | 573 kts | 52° |
| 2026-05-07 01:29 | 49.84107 | -61.61933 | 37875 ft | 573 kts | 52° |
| 2026-05-07 01:29 | 49.88943 | -61.52111 | 37874 ft | 572 kts | 52° |
| 2026-05-07 01:30 | 49.93767 | -61.42272 | 37882 ft | 572 kts | 53° |
| 2026-05-07 01:30 | 49.98589 | -61.32397 | 37869 ft | 573 kts | 53° |
| 2026-05-07 01:31 | 50.03399 | -61.22512 | 37878 ft | 573 kts | 53° |
| 2026-05-07 01:31 | 50.08198 | -61.12603 | 37887 ft | 572 kts | 53° |
| 2026-05-07 01:32 | 50.12951 | -61.02759 | 37887 ft | 572 kts | 53° |
| 2026-05-07 01:32 | 50.17734 | -60.92825 | 37884 ft | 572 kts | 53° |
| 2026-05-07 01:33 | 50.22501 | -60.82879 | 37891 ft | 572 kts | 53° |
| 2026-05-07 01:33 | 50.27262 | -60.72898 | 37899 ft | 571 kts | 53° |
| 2026-05-07 01:34 | 50.32004 | -60.62935 | 37895 ft | 571 kts | 53° |
| 2026-05-07 01:34 | 50.36740 | -60.52943 | 37901 ft | 571 kts | 53° |
| 2026-05-07 01:35 | 50.41470 | -60.42921 | 37916 ft | 570 kts | 53° |
| 2026-05-07 01:35 | 50.46184 | -60.32896 | 37919 ft | 570 kts | 53° |
| 2026-05-07 01:36 | 50.50886 | -60.22863 | 37922 ft | 570 kts | 53° |
| 2026-05-07 01:36 | 50.55585 | -60.12793 | 37925 ft | 570 kts | 53° |
| 2026-05-07 01:37 | 50.60266 | -60.02720 | 37927 ft | 569 kts | 53° |
| 2026-05-07 01:37 | 50.64932 | -59.92646 | 37939 ft | 569 kts | 53° |
| 2026-05-07 01:38 | 50.69594 | -59.82543 | 37942 ft | 569 kts | 53° |
| 2026-05-07 01:38 | 50.74243 | -59.72422 | 37948 ft | 568 kts | 53° |
| 2026-05-07 01:39 | 50.78877 | -59.62298 | 37943 ft | 567 kts | 53° |
| 2026-05-07 01:39 | 50.83497 | -59.52169 | 37944 ft | 567 kts | 53° |
| 2026-05-07 01:40 | 50.88069 | -59.42097 | 37932 ft | 565 kts | 53° |
| 2026-05-07 01:40 | 50.92682 | -59.31903 | 37950 ft | 564 kts | 53° |
| 2026-05-07 01:41 | 50.97216 | -59.21850 | 37942 ft | 563 kts | 53° |
| 2026-05-07 01:41 | 51.01767 | -59.11715 | 37941 ft | 563 kts | 53° |
| 2026-05-07 01:42 | 51.06311 | -59.01553 | 37949 ft | 563 kts | 53° |
| 2026-05-07 01:42 | 51.10837 | -58.91393 | 37951 ft | 562 kts | 53° |
| 2026-05-07 01:43 | 51.15349 | -58.81228 | 37951 ft | 562 kts | 53° |
| 2026-05-07 01:43 | 51.19853 | -58.71038 | 37951 ft | 562 kts | 54° |
| 2026-05-07 01:44 | 51.24344 | -58.60836 | 37951 ft | 561 kts | 54° |
| 2026-05-07 01:44 | 51.28821 | -58.50629 | 37952 ft | 560 kts | 54° |
| 2026-05-07 01:45 | 51.33288 | -58.40403 | 37955 ft | 560 kts | 54° |
| 2026-05-07 01:45 | 51.37745 | -58.30161 | 37968 ft | 560 kts | 54° |
| 2026-05-07 01:46 | 51.41440 | -58.21636 | 37935 ft | 558 kts | 54° |
| 2026-05-07 01:46 | 51.46592 | -58.09705 | 37960 ft | 556 kts | 54° |
| 2026-05-07 01:47 | 51.50248 | -58.01207 | 37963 ft | 556 kts | 54° |
| 2026-05-07 01:47 | 51.54641 | -57.90959 | 37953 ft | 556 kts | 54° |
| 2026-05-07 01:48 | 51.59020 | -57.80701 | 37958 ft | 556 kts | 54° |
| 2026-05-07 01:48 | 51.63395 | -57.70413 | 37955 ft | 556 kts | 54° |
| 2026-05-07 01:49 | 51.67751 | -57.60127 | 37964 ft | 556 kts | 54° |
| 2026-05-07 01:49 | 51.72108 | -57.49803 | 37988 ft | 555 kts | 55° |
| 2026-05-07 01:50 | 51.76447 | -57.39473 | 37986 ft | 555 kts | 55° |
| 2026-05-07 01:50 | 51.80779 | -57.29118 | 37986 ft | 555 kts | 55° |
| 2026-05-07 01:51 | 51.85102 | -57.18746 | 37996 ft | 556 kts | 55° |
| 2026-05-07 01:51 | 51.89414 | -57.08360 | 37993 ft | 554 kts | 55° |
| 2026-05-07 01:52 | 51.93680 | -56.98041 | 37949 ft | 554 kts | 55° |
| 2026-05-07 01:52 | 51.97941 | -56.87686 | 37986 ft | 551 kts | 55° |
| 2026-05-07 01:53 | 52.02186 | -56.77340 | 38004 ft | 550 kts | 56° |
| 2026-05-07 01:53 | 52.06424 | -56.66972 | 37991 ft | 549 kts | 56° |
| 2026-05-07 01:54 | 52.10644 | -56.56598 | 37992 ft | 549 kts | 56° |
| 2026-05-07 01:54 | 52.14857 | -56.46198 | 37983 ft | 550 kts | 56° |
| 2026-05-07 01:55 | 52.19060 | -56.35789 | 37997 ft | 549 kts | 56° |
| 2026-05-07 01:55 | 52.23246 | -56.25376 | 37981 ft | 548 kts | 56° |
| 2026-05-07 01:56 | 52.27420 | -56.14945 | 37969 ft | 548 kts | 56° |
| 2026-05-07 01:56 | 52.31584 | -56.04505 | 37968 ft | 548 kts | 56° |
| 2026-05-07 01:57 | 52.35740 | -55.94046 | 37973 ft | 547 kts | 57° |
| 2026-05-07 01:57 | 52.39808 | -55.83542 | 37964 ft | 545 kts | 60° |
| 2026-05-07 01:58 | 52.43363 | -55.72556 | 37970 ft | 545 kts | 64° |
| 2026-05-07 01:58 | 52.46751 | -55.61415 | 37951 ft | 545 kts | 64° |
| 2026-05-07 01:59 | 52.50137 | -55.50275 | 37967 ft | 543 kts | 63° |
| 2026-05-07 01:59 | 52.53517 | -55.39169 | 37972 ft | 543 kts | 63° |
| 2026-05-07 02:00 | 52.56887 | -55.28063 | 37970 ft | 543 kts | 63° |
| 2026-05-07 02:00 | 52.60228 | -55.17006 | 37972 ft | 543 kts | 64° |
| 2026-05-07 02:01 | 52.63579 | -55.05857 | 37973 ft | 542 kts | 64° |
| 2026-05-07 02:01 | 52.66940 | -54.94627 | 37972 ft | 541 kts | 64° |
| 2026-05-07 02:02 | 52.70263 | -54.83478 | 37973 ft | 541 kts | 64° |
| 2026-05-07 02:02 | 52.73573 | -54.72314 | 37973 ft | 541 kts | 64° |
| 2026-05-07 02:03 | 52.76854 | -54.61196 | 37956 ft | 541 kts | 64° |
| 2026-05-07 02:03 | 52.80149 | -54.49960 | 37978 ft | 538 kts | 63° |
| 2026-05-07 02:04 | 52.83391 | -54.38881 | 37984 ft | 538 kts | 63° |
| 2026-05-07 02:04 | 52.86645 | -54.27709 | 37985 ft | 538 kts | 64° |
| 2026-05-07 02:05 | 52.89884 | -54.16526 | 37999 ft | 538 kts | 64° |
| 2026-05-07 02:05 | 52.93116 | -54.05307 | 37985 ft | 539 kts | 64° |
| 2026-05-07 02:06 | 52.96339 | -53.94077 | 37992 ft | 539 kts | 64° |
| 2026-05-07 02:06 | 52.99550 | -53.82835 | 37987 ft | 539 kts | 64° |
| 2026-05-07 02:07 | 53.02754 | -53.71558 | 37985 ft | 539 kts | 64° |
| 2026-05-07 02:07 | 53.07534 | -53.54635 | 37990 ft | 539 kts | 64° |
| 2026-05-07 02:08 | 53.10700 | -53.43343 | 37975 ft | 537 kts | 64° |
| 2026-05-07 02:08 | 53.13854 | -53.32057 | 37982 ft | 536 kts | 64° |
| 2026-05-07 02:09 | 53.16992 | -53.20776 | 38010 ft | 536 kts | 64° |
| 2026-05-07 02:09 | 53.20124 | -53.09459 | 37998 ft | 537 kts | 64° |
| 2026-05-07 02:10 | 53.23253 | -52.98098 | 37999 ft | 538 kts | 64° |
| 2026-05-07 02:10 | 53.26366 | -52.86737 | 37999 ft | 538 kts | 64° |
| 2026-05-07 02:11 | 53.29472 | -52.75342 | 38016 ft | 538 kts | 64° |
| 2026-05-07 02:11 | 53.32570 | -52.63926 | 38019 ft | 538 kts | 64° |
| 2026-05-07 02:12 | 53.35655 | -52.52497 | 38016 ft | 539 kts | 65° |
| 2026-05-07 02:12 | 53.38712 | -52.41114 | 38017 ft | 539 kts | 65° |
| 2026-05-07 02:13 | 53.41768 | -52.29668 | 38011 ft | 535 kts | 65° |
| 2026-05-07 02:13 | 53.44801 | -52.18275 | 38023 ft | 534 kts | 65° |
| 2026-05-07 02:14 | 53.47815 | -52.06884 | 38022 ft | 533 kts | 65° |
| 2026-05-07 02:14 | 53.50816 | -51.95482 | 38024 ft | 533 kts | 65° |
| 2026-05-07 02:15 | 53.53808 | -51.84059 | 38033 ft | 533 kts | 65° |
| 2026-05-07 02:15 | 53.56789 | -51.72624 | 38035 ft | 533 kts | 65° |
| 2026-05-07 02:16 | 53.59752 | -51.61199 | 38032 ft | 531 kts | 65° |
| 2026-05-07 02:16 | 53.62700 | -51.49767 | 38034 ft | 531 kts | 66° |
| 2026-05-07 02:17 | 53.65635 | -51.38331 | 38039 ft | 531 kts | 66° |
| 2026-05-07 02:17 | 53.68560 | -51.26878 | 38041 ft | 531 kts | 66° |
| 2026-05-07 02:18 | 53.71462 | -51.15451 | 38045 ft | 526 kts | 66° |
| 2026-05-07 02:18 | 53.74338 | -51.04074 | 38026 ft | 525 kts | 66° |
| 2026-05-07 02:19 | 53.77184 | -50.92762 | 38047 ft | 525 kts | 66° |
| 2026-05-07 02:19 | 53.80032 | -50.81380 | 38046 ft | 525 kts | 66° |
| 2026-05-07 02:20 | 53.82878 | -50.69949 | 38042 ft | 527 kts | 66° |
| 2026-05-07 02:20 | 53.85716 | -50.58488 | 38043 ft | 527 kts | 66° |
| 2026-05-07 02:21 | 53.88550 | -50.46988 | 38052 ft | 527 kts | 66° |
| 2026-05-07 02:21 | 53.91369 | -50.35489 | 38046 ft | 527 kts | 66° |
| 2026-05-07 02:22 | 53.94177 | -50.23973 | 38055 ft | 528 kts | 66° |
| 2026-05-07 02:22 | 53.96975 | -50.12438 | 38049 ft | 528 kts | 67° |
| 2026-05-07 02:23 | 53.99645 | -50.00781 | 38049 ft | 528 kts | 70° |
| 2026-05-07 02:23 | 54.01638 | -49.88749 | 38055 ft | 528 kts | 75° |
| 2026-05-07 02:24 | 54.03354 | -49.76586 | 38052 ft | 528 kts | 76° |
| 2026-05-07 02:24 | 54.05057 | -49.64389 | 38056 ft | 529 kts | 76° |
| 2026-05-07 02:25 | 54.06768 | -49.52170 | 38050 ft | 530 kts | 76° |
| 2026-05-07 02:25 | 54.08473 | -49.39944 | 38051 ft | 530 kts | 76° |
| 2026-05-07 02:26 | 54.10167 | -49.27710 | 38057 ft | 530 kts | 76° |
| 2026-05-07 02:26 | 54.11849 | -49.15469 | 38059 ft | 530 kts | 76° |
| 2026-05-07 02:27 | 54.13520 | -49.03192 | 38067 ft | 531 kts | 76° |
| 2026-05-07 02:27 | 54.15170 | -48.90982 | 38066 ft | 532 kts | 76° |
| 2026-05-07 02:28 | 54.16823 | -48.78651 | 38067 ft | 532 kts | 76° |
| 2026-05-07 02:28 | 54.18463 | -48.66312 | 38067 ft | 532 kts | 76° |
| 2026-05-07 02:29 | 54.20088 | -48.53973 | 38077 ft | 532 kts | 76° |
| 2026-05-07 02:29 | 54.21701 | -48.41629 | 38076 ft | 532 kts | 76° |
| 2026-05-07 02:30 | 54.23304 | -48.29248 | 38074 ft | 532 kts | 77° |
| 2026-05-07 02:30 | 54.24891 | -48.16874 | 38073 ft | 532 kts | 76° |
| 2026-05-07 02:31 | 54.26465 | -48.04499 | 38078 ft | 531 kts | 76° |
| 2026-05-07 02:31 | 54.28033 | -47.92135 | 38081 ft | 531 kts | 76° |
| 2026-05-07 02:32 | 54.29583 | -47.79757 | 38089 ft | 531 kts | 76° |
| 2026-05-07 02:32 | 54.31121 | -47.67354 | 38087 ft | 531 kts | 76° |
| 2026-05-07 02:33 | 54.32646 | -47.54936 | 38089 ft | 531 kts | 76° |
| 2026-05-07 02:33 | 54.34155 | -47.42532 | 38092 ft | 531 kts | 77° |
| 2026-05-07 02:34 | 54.35659 | -47.30059 | 38098 ft | 532 kts | 77° |
| 2026-05-07 02:34 | 54.37138 | -47.17627 | 38097 ft | 530 kts | 76° |
| 2026-05-07 02:35 | 54.38357 | -47.07322 | 38101 ft | 529 kts | 76° |
| 2026-05-07 02:35 | 54.40048 | -46.92937 | 38105 ft | 529 kts | 76° |
| 2026-05-07 02:36 | 54.41256 | -46.82555 | 38108 ft | 529 kts | 76° |
| 2026-05-07 02:36 | 54.42687 | -46.70129 | 38108 ft | 529 kts | 77° |
| 2026-05-07 02:37 | 54.44332 | -46.55702 | 38121 ft | 529 kts | 77° |
| 2026-05-07 02:37 | 54.45506 | -46.45297 | 38115 ft | 529 kts | 77° |
| 2026-05-07 02:38 | 54.46896 | -46.32874 | 38120 ft | 529 kts | 77° |
| 2026-05-07 02:38 | 54.48267 | -46.20459 | 38122 ft | 526 kts | 77° |
| 2026-05-07 02:39 | 54.49625 | -46.08080 | 38130 ft | 525 kts | 77° |
| 2026-05-07 02:39 | 54.50971 | -45.95695 | 38137 ft | 525 kts | 77° |
| 2026-05-07 02:40 | 54.52302 | -45.83321 | 38147 ft | 525 kts | 77° |
| 2026-05-07 02:40 | 54.53618 | -45.70948 | 38144 ft | 525 kts | 77° |
| 2026-05-07 02:41 | 54.54921 | -45.58577 | 38143 ft | 525 kts | 77° |
| 2026-05-07 02:41 | 54.56205 | -45.46261 | 38152 ft | 525 kts | 77° |
| 2026-05-07 02:42 | 54.57491 | -45.33778 | 38156 ft | 524 kts | 77° |
| 2026-05-07 02:42 | 54.58749 | -45.21417 | 38153 ft | 520 kts | 77° |
| 2026-05-07 02:43 | 54.59995 | -45.09099 | 38160 ft | 520 kts | 77° |
| 2026-05-07 02:43 | 54.61217 | -44.96872 | 38159 ft | 520 kts | 77° |
| 2026-05-07 02:44 | 54.62435 | -44.84552 | 38168 ft | 520 kts | 77° |
| 2026-05-07 02:44 | 54.63639 | -44.72230 | 38188 ft | 519 kts | 77° |
| 2026-05-07 02:45 | 54.64829 | -44.59913 | 38179 ft | 519 kts | 78° |
| 2026-05-07 02:45 | 54.66015 | -44.47516 | 38182 ft | 519 kts | 78° |
| 2026-05-07 02:46 | 54.67181 | -44.35180 | 38187 ft | 518 kts | 78° |
| 2026-05-07 02:46 | 54.68323 | -44.22925 | 38184 ft | 514 kts | 78° |
| 2026-05-07 02:47 | 54.69452 | -44.10724 | 38214 ft | 513 kts | 78° |
| 2026-05-07 02:47 | 54.70567 | -43.98536 | 38190 ft | 512 kts | 78° |
| 2026-05-07 02:48 | 54.71483 | -43.88400 | 38199 ft | 512 kts | 78° |
| 2026-05-07 02:48 | 54.71852 | -43.84284 | 38215 ft | 512 kts | 78° |
| 2026-05-07 02:49 | 54.72214 | -43.80244 | 38195 ft | 512 kts | 78° |